sensor_id;sensor_type;location;lat;lon;timestamp;temperature;humidity
4374;DHT22;2201;51.100;6.814;2023-04-03T00:00:47;3.30;98.20
4374;DHT22;2201;51.100;6.814;2023-04-03T00:03:14;3.30;98.20
4374;DHT22;2201;51.100;6.814;2023-04-03T00:05:41;3.20;98.20
4374;DHT22;2201;51.100;6.814;2023-04-03T00:08:08;3.20;98.20
4374;DHT22;2201;51.100;6.814;2023-04-03T00:10:37;3.10;98.20
4374;DHT22;2201;51.100;6.814;2023-04-03T00:13:04;3.10;98.20
4374;DHT22;2201;51.100;6.814;2023-04-03T00:15:31;3.10;98.20
4374;DHT22;2201;51.100;6.814;2023-04-03T00:17:58;3.10;98.20
4374;DHT22;2201;51.100;6.814;2023-04-03T00:20:25;3.00;98.20
4374;DHT22;2201;51.100;6.814;2023-04-03T00:22:52;3.00;98.20
4374;DHT22;2201;51.100;6.814;2023-04-03T00:25:19;3.00;98.20
4374;DHT22;2201;51.100;6.814;2023-04-03T00:27:47;3.00;98.20
4374;DHT22;2201;51.100;6.814;2023-04-03T00:30:16;3.00;98.20
4374;DHT22;2201;51.100;6.814;2023-04-03T00:32:43;2.90;98.20
4374;DHT22;2201;51.100;6.814;2023-04-03T00:35:10;2.90;98.20
4374;DHT22;2201;51.100;6.814;2023-04-03T00:37:36;2.90;98.20
4374;DHT22;2201;51.100;6.814;2023-04-03T00:40:04;2.80;98.20
4374;DHT22;2201;51.100;6.814;2023-04-03T00:42:31;2.80;98.20
4374;DHT22;2201;51.100;6.814;2023-04-03T00:45:26;2.80;98.20
4374;DHT22;2201;51.100;6.814;2023-04-03T00:47:54;2.80;98.20
4374;DHT22;2201;51.100;6.814;2023-04-03T00:50:22;2.80;98.20
4374;DHT22;2201;51.100;6.814;2023-04-03T00:52:49;2.80;98.20
4374;DHT22;2201;51.100;6.814;2023-04-03T00:55:17;2.80;98.20
4374;DHT22;2201;51.100;6.814;2023-04-03T00:57:44;2.70;98.20
4374;DHT22;2201;51.100;6.814;2023-04-03T01:00:15;2.70;98.20
4374;DHT22;2201;51.100;6.814;2023-04-03T01:02:44;2.70;98.20
4374;DHT22;2201;51.100;6.814;2023-04-03T01:05:11;2.70;98.20
4374;DHT22;2201;51.100;6.814;2023-04-03T01:07:39;2.70;98.20
4374;DHT22;2201;51.100;6.814;2023-04-03T01:10:09;2.70;98.20
4374;DHT22;2201;51.100;6.814;2023-04-03T01:12:40;2.60;98.20
4374;DHT22;2201;51.100;6.814;2023-04-03T01:15:10;2.60;98.20
4374;DHT22;2201;51.100;6.814;2023-04-03T01:17:38;2.60;98.20
4374;DHT22;2201;51.100;6.814;2023-04-03T01:23:53;2.50;98.20
4374;DHT22;2201;51.100;6.814;2023-04-03T01:26:22;2.50;98.20
4374;DHT22;2201;51.100;6.814;2023-04-03T01:28:51;2.50;98.20
4374;DHT22;2201;51.100;6.814;2023-04-03T01:31:23;2.50;98.20
4374;DHT22;2201;51.100;6.814;2023-04-03T01:33:53;2.50;98.20
4374;DHT22;2201;51.100;6.814;2023-04-03T01:36:22;2.50;98.20
4374;DHT22;2201;51.100;6.814;2023-04-03T01:38:50;2.50;98.20
4374;DHT22;2201;51.100;6.814;2023-04-03T01:41:17;2.40;98.20
4374;DHT22;2201;51.100;6.814;2023-04-03T01:43:44;2.40;98.20
4374;DHT22;2201;51.100;6.814;2023-04-03T01:46:11;2.40;98.20
4374;DHT22;2201;51.100;6.814;2023-04-03T01:48:38;2.40;98.20
4374;DHT22;2201;51.100;6.814;2023-04-03T01:51:06;2.40;98.20
4374;DHT22;2201;51.100;6.814;2023-04-03T01:53:33;2.40;98.20
4374;DHT22;2201;51.100;6.814;2023-04-03T01:56:00;2.30;98.20
4374;DHT22;2201;51.100;6.814;2023-04-03T01:58:27;2.30;98.20
4374;DHT22;2201;51.100;6.814;2023-04-03T02:00:53;2.30;98.20
4374;DHT22;2201;51.100;6.814;2023-04-03T02:03:21;2.30;98.20
4374;DHT22;2201;51.100;6.814;2023-04-03T02:05:49;2.30;98.20
4374;DHT22;2201;51.100;6.814;2023-04-03T02:08:17;2.20;98.20
4374;DHT22;2201;51.100;6.814;2023-04-03T02:10:46;2.20;98.20
4374;DHT22;2201;51.100;6.814;2023-04-03T02:13:13;2.20;98.20
4374;DHT22;2201;51.100;6.814;2023-04-03T02:15:39;2.20;98.20
4374;DHT22;2201;51.100;6.814;2023-04-03T02:18:06;2.20;98.20
4374;DHT22;2201;51.100;6.814;2023-04-03T02:20:34;2.20;98.20
4374;DHT22;2201;51.100;6.814;2023-04-03T02:23:01;2.10;98.20
4374;DHT22;2201;51.100;6.814;2023-04-03T02:25:30;2.10;98.20
4374;DHT22;2201;51.100;6.814;2023-04-03T02:27:57;2.10;98.20
4374;DHT22;2201;51.100;6.814;2023-04-03T02:30:24;2.10;98.20
4374;DHT22;2201;51.100;6.814;2023-04-03T02:32:51;2.00;98.20
4374;DHT22;2201;51.100;6.814;2023-04-03T02:35:18;2.00;98.20
4374;DHT22;2201;51.100;6.814;2023-04-03T02:37:45;2.00;98.20
4374;DHT22;2201;51.100;6.814;2023-04-03T02:40:12;2.00;98.20
4374;DHT22;2201;51.100;6.814;2023-04-03T02:42:40;1.90;98.20
4374;DHT22;2201;51.100;6.814;2023-04-03T02:45:07;1.90;98.20
4374;DHT22;2201;51.100;6.814;2023-04-03T02:47:34;1.90;98.20
4374;DHT22;2201;51.100;6.814;2023-04-03T02:50:01;1.90;98.20
4374;DHT22;2201;51.100;6.814;2023-04-03T02:52:28;1.90;98.20
4374;DHT22;2201;51.100;6.814;2023-04-03T02:54:55;1.90;98.20
4374;DHT22;2201;51.100;6.814;2023-04-03T02:57:21;1.90;98.20
4374;DHT22;2201;51.100;6.814;2023-04-03T02:59:50;1.90;98.20
4374;DHT22;2201;51.100;6.814;2023-04-03T03:02:16;1.80;98.20
4374;DHT22;2201;51.100;6.814;2023-04-03T03:04:43;1.90;98.20
4374;DHT22;2201;51.100;6.814;2023-04-03T03:07:10;1.90;98.20
4374;DHT22;2201;51.100;6.814;2023-04-03T03:09:37;1.90;98.20
4374;DHT22;2201;51.100;6.814;2023-04-03T03:12:04;1.90;98.20
4374;DHT22;2201;51.100;6.814;2023-04-03T03:14:31;1.90;98.20
4374;DHT22;2201;51.100;6.814;2023-04-03T03:16:59;1.90;98.20
4374;DHT22;2201;51.100;6.814;2023-04-03T03:19:26;1.90;98.20
4374;DHT22;2201;51.100;6.814;2023-04-03T03:21:53;1.90;98.20
4374;DHT22;2201;51.100;6.814;2023-04-03T03:24:20;1.90;98.20
4374;DHT22;2201;51.100;6.814;2023-04-03T03:26:47;1.90;98.20
4374;DHT22;2201;51.100;6.814;2023-04-03T03:29:13;1.90;98.20
4374;DHT22;2201;51.100;6.814;2023-04-03T03:31:40;1.90;98.20
4374;DHT22;2201;51.100;6.814;2023-04-03T03:34:08;1.90;98.20
4374;DHT22;2201;51.100;6.814;2023-04-03T03:36:35;1.80;98.20
4374;DHT22;2201;51.100;6.814;2023-04-03T03:39:02;1.80;98.20
4374;DHT22;2201;51.100;6.814;2023-04-03T03:41:29;1.80;98.20
4374;DHT22;2201;51.100;6.814;2023-04-03T03:43:56;1.80;98.20
4374;DHT22;2201;51.100;6.814;2023-04-03T03:46:23;1.80;98.20
4374;DHT22;2201;51.100;6.814;2023-04-03T03:48:50;1.80;98.20
4374;DHT22;2201;51.100;6.814;2023-04-03T03:51:18;1.80;98.20
4374;DHT22;2201;51.100;6.814;2023-04-03T03:53:45;1.80;98.20
4374;DHT22;2201;51.100;6.814;2023-04-03T03:56:12;1.70;98.20
4374;DHT22;2201;51.100;6.814;2023-04-03T03:58:38;1.70;98.20
4374;DHT22;2201;51.100;6.814;2023-04-03T04:01:06;1.70;98.20
4374;DHT22;2201;51.100;6.814;2023-04-03T04:03:33;1.70;98.20
4374;DHT22;2201;51.100;6.814;2023-04-03T04:06:00;1.70;98.20
4374;DHT22;2201;51.100;6.814;2023-04-03T04:08:28;1.70;98.20
4374;DHT22;2201;51.100;6.814;2023-04-03T04:10:55;1.70;98.20
4374;DHT22;2201;51.100;6.814;2023-04-03T04:13:23;1.70;98.20
4374;DHT22;2201;51.100;6.814;2023-04-03T04:15:49;1.70;98.20
4374;DHT22;2201;51.100;6.814;2023-04-03T04:18:16;1.70;98.20
4374;DHT22;2201;51.100;6.814;2023-04-03T04:20:45;1.70;98.20
4374;DHT22;2201;51.100;6.814;2023-04-03T04:23:12;1.60;98.20
4374;DHT22;2201;51.100;6.814;2023-04-03T04:25:40;1.60;98.20
4374;DHT22;2201;51.100;6.814;2023-04-03T04:28:07;1.60;98.20
4374;DHT22;2201;51.100;6.814;2023-04-03T04:30:33;1.60;98.20
4374;DHT22;2201;51.100;6.814;2023-04-03T04:33:00;1.60;98.20
4374;DHT22;2201;51.100;6.814;2023-04-03T04:35:27;1.60;98.20
4374;DHT22;2201;51.100;6.814;2023-04-03T04:37:54;1.60;98.20
4374;DHT22;2201;51.100;6.814;2023-04-03T04:40:21;1.50;98.20
4374;DHT22;2201;51.100;6.814;2023-04-03T04:42:49;1.50;98.20
4374;DHT22;2201;51.100;6.814;2023-04-03T04:45:16;1.50;98.20
4374;DHT22;2201;51.100;6.814;2023-04-03T04:47:44;1.50;98.20
4374;DHT22;2201;51.100;6.814;2023-04-03T04:50:11;1.50;98.20
4374;DHT22;2201;51.100;6.814;2023-04-03T04:52:38;1.50;98.20
4374;DHT22;2201;51.100;6.814;2023-04-03T04:55:07;1.50;98.20
4374;DHT22;2201;51.100;6.814;2023-04-03T04:57:38;1.50;98.20
4374;DHT22;2201;51.100;6.814;2023-04-03T05:00:12;1.50;98.20
4374;DHT22;2201;51.100;6.814;2023-04-03T05:02:41;1.50;98.20
4374;DHT22;2201;51.100;6.814;2023-04-03T05:05:08;1.50;98.20
4374;DHT22;2201;51.100;6.814;2023-04-03T05:07:35;1.50;98.20
4374;DHT22;2201;51.100;6.814;2023-04-03T05:10:02;1.50;98.20
4374;DHT22;2201;51.100;6.814;2023-04-03T05:12:29;1.40;98.20
4374;DHT22;2201;51.100;6.814;2023-04-03T05:14:56;1.40;98.20
4374;DHT22;2201;51.100;6.814;2023-04-03T05:17:24;1.40;98.20
4374;DHT22;2201;51.100;6.814;2023-04-03T05:19:51;1.40;98.20
4374;DHT22;2201;51.100;6.814;2023-04-03T05:22:17;1.50;98.20
4374;DHT22;2201;51.100;6.814;2023-04-03T05:24:44;1.40;98.20
4374;DHT22;2201;51.100;6.814;2023-04-03T05:27:11;1.50;98.20
4374;DHT22;2201;51.100;6.814;2023-04-03T05:29:38;1.50;98.20
4374;DHT22;2201;51.100;6.814;2023-04-03T05:32:05;1.50;98.20
4374;DHT22;2201;51.100;6.814;2023-04-03T05:34:33;1.50;98.20
4374;DHT22;2201;51.100;6.814;2023-04-03T05:37:00;1.50;98.20
4374;DHT22;2201;51.100;6.814;2023-04-03T05:39:28;1.50;98.20
4374;DHT22;2201;51.100;6.814;2023-04-03T05:41:57;1.50;98.20
4374;DHT22;2201;51.100;6.814;2023-04-03T05:44:24;1.60;98.20
4374;DHT22;2201;51.100;6.814;2023-04-03T05:46:51;1.60;98.20
4374;DHT22;2201;51.100;6.814;2023-04-03T05:49:18;1.60;98.20
4374;DHT22;2201;51.100;6.814;2023-04-03T05:51:46;1.70;98.20
4374;DHT22;2201;51.100;6.814;2023-04-03T05:54:17;1.70;98.20
4374;DHT22;2201;51.100;6.814;2023-04-03T05:56:45;1.70;98.20
4374;DHT22;2201;51.100;6.814;2023-04-03T05:59:12;1.70;98.20
4374;DHT22;2201;51.100;6.814;2023-04-03T06:01:38;1.80;98.20
4374;DHT22;2201;51.100;6.814;2023-04-03T06:04:06;1.80;98.20
4374;DHT22;2201;51.100;6.814;2023-04-03T06:06:47;1.90;98.20
4374;DHT22;2201;51.100;6.814;2023-04-03T06:09:15;2.00;98.20
4374;DHT22;2201;51.100;6.814;2023-04-03T06:11:42;2.20;98.20
4374;DHT22;2201;51.100;6.814;2023-04-03T06:14:09;2.30;98.20
4374;DHT22;2201;51.100;6.814;2023-04-03T06:16:36;2.60;98.20
4374;DHT22;2201;51.100;6.814;2023-04-03T06:19:04;2.70;98.20
4374;DHT22;2201;51.100;6.814;2023-04-03T06:21:32;2.90;98.20
4374;DHT22;2201;51.100;6.814;2023-04-03T06:24:00;3.10;98.20
4374;DHT22;2201;51.100;6.814;2023-04-03T06:26:27;3.20;98.20
4374;DHT22;2201;51.100;6.814;2023-04-03T06:28:54;3.40;98.20
4374;DHT22;2201;51.100;6.814;2023-04-03T06:31:21;3.50;98.20
4374;DHT22;2201;51.100;6.814;2023-04-03T06:33:48;3.80;98.20
4374;DHT22;2201;51.100;6.814;2023-04-03T06:36:17;4.00;98.20
4374;DHT22;2201;51.100;6.814;2023-04-03T06:38:45;4.10;98.20
4374;DHT22;2201;51.100;6.814;2023-04-03T06:41:13;4.40;98.20
4374;DHT22;2201;51.100;6.814;2023-04-03T06:43:41;4.50;98.20
4374;DHT22;2201;51.100;6.814;2023-04-03T06:46:13;4.60;98.20
4374;DHT22;2201;51.100;6.814;2023-04-03T06:48:42;4.70;98.20
4374;DHT22;2201;51.100;6.814;2023-04-03T06:51:15;4.80;98.20
4374;DHT22;2201;51.100;6.814;2023-04-03T06:53:43;4.90;98.20
4374;DHT22;2201;51.100;6.814;2023-04-03T06:56:10;5.00;98.20
4374;DHT22;2201;51.100;6.814;2023-04-03T06:58:41;5.10;98.20
4374;DHT22;2201;51.100;6.814;2023-04-03T07:01:08;5.20;98.20
4374;DHT22;2201;51.100;6.814;2023-04-03T07:03:36;5.30;98.20
4374;DHT22;2201;51.100;6.814;2023-04-03T07:06:03;5.40;98.20
4374;DHT22;2201;51.100;6.814;2023-04-03T07:08:31;5.60;98.20
4374;DHT22;2201;51.100;6.814;2023-04-03T07:10:58;5.70;98.20
4374;DHT22;2201;51.100;6.814;2023-04-03T07:13:25;5.80;98.20
4374;DHT22;2201;51.100;6.814;2023-04-03T07:15:54;5.90;98.20
4374;DHT22;2201;51.100;6.814;2023-04-03T07:18:21;6.00;98.20
4374;DHT22;2201;51.100;6.814;2023-04-03T07:20:48;6.30;98.20
4374;DHT22;2201;51.100;6.814;2023-04-03T07:23:14;6.40;98.20
4374;DHT22;2201;51.100;6.814;2023-04-03T07:25:43;6.50;98.20
4374;DHT22;2201;51.100;6.814;2023-04-03T07:28:10;6.50;98.20
4374;DHT22;2201;51.100;6.814;2023-04-03T07:30:42;6.60;98.20
4374;DHT22;2201;51.100;6.814;2023-04-03T07:33:12;6.70;98.20
4374;DHT22;2201;51.100;6.814;2023-04-03T07:35:39;6.80;98.20
4374;DHT22;2201;51.100;6.814;2023-04-03T07:38:06;6.90;98.20
4374;DHT22;2201;51.100;6.814;2023-04-03T07:40:33;7.10;98.20
4374;DHT22;2201;51.100;6.814;2023-04-03T07:43:00;7.30;97.70
4374;DHT22;2201;51.100;6.814;2023-04-03T07:45:28;7.30;96.70
4374;DHT22;2201;51.100;6.814;2023-04-03T07:47:55;7.20;91.70
4374;DHT22;2201;51.100;6.814;2023-04-03T07:50:23;7.20;92.20
4374;DHT22;2201;51.100;6.814;2023-04-03T07:52:50;7.30;93.30
4374;DHT22;2201;51.100;6.814;2023-04-03T07:55:20;7.60;92.80
4374;DHT22;2201;51.100;6.814;2023-04-03T07:57:46;7.60;89.80
4374;DHT22;2201;51.100;6.814;2023-04-03T08:00:14;7.60;89.10
4374;DHT22;2201;51.100;6.814;2023-04-03T08:02:43;7.50;90.60
4374;DHT22;2201;51.100;6.814;2023-04-03T08:05:15;7.30;89.70
4374;DHT22;2201;51.100;6.814;2023-04-03T08:07:43;7.30;89.50
4374;DHT22;2201;51.100;6.814;2023-04-03T08:10:10;7.50;91.40
4374;DHT22;2201;51.100;6.814;2023-04-03T08:12:37;7.70;89.90
4374;DHT22;2201;51.100;6.814;2023-04-03T14:05:01;14.10;61.30
4374;DHT22;2201;51.100;6.814;2023-04-03T14:07:29;14.00;60.70
4374;DHT22;2201;51.100;6.814;2023-04-03T14:09:58;14.00;61.50
4374;DHT22;2201;51.100;6.814;2023-04-03T14:12:27;13.80;61.00
4374;DHT22;2201;51.100;6.814;2023-04-03T14:14:56;13.70;62.50
4374;DHT22;2201;51.100;6.814;2023-04-03T14:17:24;13.60;61.90
4374;DHT22;2201;51.100;6.814;2023-04-03T14:19:53;13.50;60.20
4374;DHT22;2201;51.100;6.814;2023-04-03T14:22:24;13.50;61.70
4374;DHT22;2201;51.100;6.814;2023-04-03T14:24:51;13.50;64.90
4374;DHT22;2201;51.100;6.814;2023-04-03T14:27:20;13.80;65.10
4374;DHT22;2201;51.100;6.814;2023-04-03T14:29:49;13.90;63.60
4374;DHT22;2201;51.100;6.814;2023-04-03T14:32:18;13.80;61.00
4374;DHT22;2201;51.100;6.814;2023-04-03T14:34:45;13.50;61.60
4374;DHT22;2201;51.100;6.814;2023-04-03T14:37:14;13.40;61.10
4374;DHT22;2201;51.100;6.814;2023-04-03T14:39:43;13.20;60.90
4374;DHT22;2201;51.100;6.814;2023-04-03T14:42:13;13.00;60.10
4374;DHT22;2201;51.100;6.814;2023-04-03T14:44:40;12.90;62.50
4374;DHT22;2201;51.100;6.814;2023-04-03T14:47:10;12.90;61.30
4374;DHT22;2201;51.100;6.814;2023-04-03T14:49:38;12.90;61.80
4374;DHT22;2201;51.100;6.814;2023-04-03T14:52:05;12.70;61.10
4374;DHT22;2201;51.100;6.814;2023-04-03T14:54:32;12.80;65.80
4374;DHT22;2201;51.100;6.814;2023-04-03T14:57:00;13.00;62.50
4374;DHT22;2201;51.100;6.814;2023-04-03T14:59:29;12.70;62.50
4374;DHT22;2201;51.100;6.814;2023-04-03T15:01:58;12.80;63.60
4374;DHT22;2201;51.100;6.814;2023-04-03T15:04:26;12.60;61.80
4374;DHT22;2201;51.100;6.814;2023-04-03T15:06:53;12.50;63.20
4374;DHT22;2201;51.100;6.814;2023-04-03T15:09:23;12.60;64.90
4374;DHT22;2201;51.100;6.814;2023-04-03T15:11:52;12.70;63.90
4374;DHT22;2201;51.100;6.814;2023-04-03T15:14:21;12.70;65.70
4374;DHT22;2201;51.100;6.814;2023-04-03T15:16:48;12.80;65.40
4374;DHT22;2201;51.100;6.814;2023-04-03T15:19:16;12.70;64.00
4374;DHT22;2201;51.100;6.814;2023-04-03T15:21:43;12.40;63.50
4374;DHT22;2201;51.100;6.814;2023-04-03T15:24:10;12.30;64.60
4374;DHT22;2201;51.100;6.814;2023-04-03T15:26:38;12.40;65.90
4374;DHT22;2201;51.100;6.814;2023-04-03T15:29:05;12.40;65.10
4374;DHT22;2201;51.100;6.814;2023-04-03T15:31:34;12.30;65.50
4374;DHT22;2201;51.100;6.814;2023-04-03T15:34:01;12.20;63.90
4374;DHT22;2201;51.100;6.814;2023-04-03T15:36:30;12.20;64.10
4374;DHT22;2201;51.100;6.814;2023-04-03T15:38:58;12.30;66.50
4374;DHT22;2201;51.100;6.814;2023-04-03T15:41:25;12.30;67.10
4374;DHT22;2201;51.100;6.814;2023-04-03T15:43:52;12.30;67.30
4374;DHT22;2201;51.100;6.814;2023-04-03T15:46:19;12.10;67.60
4374;DHT22;2201;51.100;6.814;2023-04-03T15:48:49;12.10;68.00
4374;DHT22;2201;51.100;6.814;2023-04-03T15:51:16;12.00;69.00
4374;DHT22;2201;51.100;6.814;2023-04-03T15:53:44;12.10;69.60
4374;DHT22;2201;51.100;6.814;2023-04-03T15:56:11;12.00;67.60
4374;DHT22;2201;51.100;6.814;2023-04-03T15:58:38;12.00;68.70
4374;DHT22;2201;51.100;6.814;2023-04-03T16:01:06;12.00;69.40
4374;DHT22;2201;51.100;6.814;2023-04-03T16:03:33;11.90;68.70
4374;DHT22;2201;51.100;6.814;2023-04-03T16:06:02;11.70;67.60
4374;DHT22;2201;51.100;6.814;2023-04-03T16:08:29;11.60;69.80
4374;DHT22;2201;51.100;6.814;2023-04-03T16:10:56;11.60;68.20
4374;DHT22;2201;51.100;6.814;2023-04-03T16:13:23;11.60;67.60
4374;DHT22;2201;51.100;6.814;2023-04-03T16:15:50;11.60;69.50
4374;DHT22;2201;51.100;6.814;2023-04-03T16:18:18;11.70;69.10
4374;DHT22;2201;51.100;6.814;2023-04-03T16:20:45;11.50;68.80
4374;DHT22;2201;51.100;6.814;2023-04-03T16:23:14;11.20;69.00
4374;DHT22;2201;51.100;6.814;2023-04-03T16:25:42;11.10;68.80
4374;DHT22;2201;51.100;6.814;2023-04-03T16:28:11;11.00;69.90
4374;DHT22;2201;51.100;6.814;2023-04-03T16:30:39;11.00;70.70
4374;DHT22;2201;51.100;6.814;2023-04-03T16:33:07;11.00;69.60
4374;DHT22;2201;51.100;6.814;2023-04-03T16:35:35;10.90;69.80
4374;DHT22;2201;51.100;6.814;2023-04-03T16:38:02;10.70;70.40
4374;DHT22;2201;51.100;6.814;2023-04-03T16:40:31;10.60;70.80
4374;DHT22;2201;51.100;6.814;2023-04-03T16:43:00;10.50;70.90
4374;DHT22;2201;51.100;6.814;2023-04-03T16:45:49;10.40;72.60
4374;DHT22;2201;51.100;6.814;2023-04-03T16:48:22;10.30;71.90
4374;DHT22;2201;51.100;6.814;2023-04-03T16:50:50;10.30;72.40
4374;DHT22;2201;51.100;6.814;2023-04-03T16:53:19;10.20;72.00
4374;DHT22;2201;51.100;6.814;2023-04-03T16:55:47;10.10;72.00
4374;DHT22;2201;51.100;6.814;2023-04-03T16:58:15;10.00;72.30
4374;DHT22;2201;51.100;6.814;2023-04-03T17:00:51;9.90;72.60
4374;DHT22;2201;51.100;6.814;2023-04-03T17:03:19;9.80;72.50
4374;DHT22;2201;51.100;6.814;2023-04-03T17:05:47;9.70;73.30
4374;DHT22;2201;51.100;6.814;2023-04-03T17:08:16;9.60;73.50
4374;DHT22;2201;51.100;6.814;2023-04-03T17:10:43;9.50;73.70
4374;DHT22;2201;51.100;6.814;2023-04-03T17:13:12;9.40;73.90
4374;DHT22;2201;51.100;6.814;2023-04-03T17:15:39;9.20;73.90
4374;DHT22;2201;51.100;6.814;2023-04-03T17:18:07;9.20;74.80
4374;DHT22;2201;51.100;6.814;2023-04-03T17:20:34;9.10;74.80
4374;DHT22;2201;51.100;6.814;2023-04-03T17:23:03;9.00;74.90
4374;DHT22;2201;51.100;6.814;2023-04-03T17:25:31;9.00;75.10
4374;DHT22;2201;51.100;6.814;2023-04-03T17:27:58;8.90;75.60
4374;DHT22;2201;51.100;6.814;2023-04-03T17:30:26;8.90;75.00
4374;DHT22;2201;51.100;6.814;2023-04-03T17:32:53;8.70;75.20
4374;DHT22;2201;51.100;6.814;2023-04-03T17:35:21;8.60;75.20
4374;DHT22;2201;51.100;6.814;2023-04-03T17:37:48;8.60;75.20
4374;DHT22;2201;51.100;6.814;2023-04-03T17:40:17;8.50;75.00
4374;DHT22;2201;51.100;6.814;2023-04-03T17:42:45;8.50;75.90
4374;DHT22;2201;51.100;6.814;2023-04-03T17:45:12;8.40;76.10
4374;DHT22;2201;51.100;6.814;2023-04-03T17:47:40;8.40;76.40
4374;DHT22;2201;51.100;6.814;2023-04-03T17:50:08;8.30;76.40
4374;DHT22;2201;51.100;6.814;2023-04-03T17:52:35;8.30;77.00
4374;DHT22;2201;51.100;6.814;2023-04-03T17:55:03;8.20;77.30
4374;DHT22;2201;51.100;6.814;2023-04-03T17:57:31;8.20;77.80
4374;DHT22;2201;51.100;6.814;2023-04-03T17:59:58;8.10;77.30
4374;DHT22;2201;51.100;6.814;2023-04-03T18:02:25;8.00;77.40
4374;DHT22;2201;51.100;6.814;2023-04-03T18:04:53;8.00;78.00
4374;DHT22;2201;51.100;6.814;2023-04-03T18:07:21;7.90;78.40
4374;DHT22;2201;51.100;6.814;2023-04-03T18:09:48;7.80;77.50
4374;DHT22;2201;51.100;6.814;2023-04-03T18:12:17;7.80;77.50
4374;DHT22;2201;51.100;6.814;2023-04-03T18:14:44;7.70;78.00
4374;DHT22;2201;51.100;6.814;2023-04-03T18:17:12;7.70;78.10
4374;DHT22;2201;51.100;6.814;2023-04-03T18:19:40;7.60;78.50
4374;DHT22;2201;51.100;6.814;2023-04-03T18:22:12;7.60;79.00
4374;DHT22;2201;51.100;6.814;2023-04-03T18:24:40;7.50;79.20
4374;DHT22;2201;51.100;6.814;2023-04-03T18:27:10;7.40;79.20
4374;DHT22;2201;51.100;6.814;2023-04-03T18:29:40;7.40;79.50
4374;DHT22;2201;51.100;6.814;2023-04-03T18:32:10;7.30;79.50
4374;DHT22;2201;51.100;6.814;2023-04-03T18:34:38;7.30;79.60
4374;DHT22;2201;51.100;6.814;2023-04-03T18:37:05;7.20;80.10
4374;DHT22;2201;51.100;6.814;2023-04-03T18:39:34;7.20;80.60
4374;DHT22;2201;51.100;6.814;2023-04-03T18:42:05;7.10;80.30
4374;DHT22;2201;51.100;6.814;2023-04-03T18:44:34;7.10;80.50
4374;DHT22;2201;51.100;6.814;2023-04-03T18:47:02;7.00;80.70
4374;DHT22;2201;51.100;6.814;2023-04-03T18:49:30;7.00;80.60
4374;DHT22;2201;51.100;6.814;2023-04-03T18:51:58;6.90;80.30
4374;DHT22;2201;51.100;6.814;2023-04-03T18:54:25;6.90;80.50
4374;DHT22;2201;51.100;6.814;2023-04-03T18:56:54;6.90;80.90
4374;DHT22;2201;51.100;6.814;2023-04-03T18:59:21;6.90;81.10
4374;DHT22;2201;51.100;6.814;2023-04-03T19:01:47;6.80;81.20
4374;DHT22;2201;51.100;6.814;2023-04-03T19:04:15;6.80;81.40
4374;DHT22;2201;51.100;6.814;2023-04-03T19:06:42;6.70;81.30
4374;DHT22;2201;51.100;6.814;2023-04-03T19:09:09;6.70;81.30
4374;DHT22;2201;51.100;6.814;2023-04-03T19:11:36;6.60;81.30
4374;DHT22;2201;51.100;6.814;2023-04-03T19:14:05;6.60;81.80
4374;DHT22;2201;51.100;6.814;2023-04-03T19:16:32;6.60;81.50
4374;DHT22;2201;51.100;6.814;2023-04-03T19:19:00;6.50;81.40
4374;DHT22;2201;51.100;6.814;2023-04-03T19:21:27;6.50;81.60
4374;DHT22;2201;51.100;6.814;2023-04-03T19:23:54;6.40;81.80
4374;DHT22;2201;51.100;6.814;2023-04-03T19:26:24;6.40;81.70
4374;DHT22;2201;51.100;6.814;2023-04-03T19:28:51;6.40;82.00
4374;DHT22;2201;51.100;6.814;2023-04-03T19:31:20;6.40;82.30
4374;DHT22;2201;51.100;6.814;2023-04-03T19:33:48;6.30;82.30
4374;DHT22;2201;51.100;6.814;2023-04-03T19:36:16;6.30;82.80
4374;DHT22;2201;51.100;6.814;2023-04-03T19:38:43;6.30;82.80
4374;DHT22;2201;51.100;6.814;2023-04-03T19:41:12;6.20;82.60
4374;DHT22;2201;51.100;6.814;2023-04-03T19:43:40;6.20;82.70
4374;DHT22;2201;51.100;6.814;2023-04-03T19:46:08;6.20;82.90
4374;DHT22;2201;51.100;6.814;2023-04-03T19:48:37;6.20;83.10
4374;DHT22;2201;51.100;6.814;2023-04-03T19:51:04;6.10;83.40
4374;DHT22;2201;51.100;6.814;2023-04-03T19:53:33;6.10;83.60
4374;DHT22;2201;51.100;6.814;2023-04-03T19:56:00;6.00;83.60
4374;DHT22;2201;51.100;6.814;2023-04-03T19:58:27;6.00;84.10
4374;DHT22;2201;51.100;6.814;2023-04-03T20:00:54;6.00;84.50
4374;DHT22;2201;51.100;6.814;2023-04-03T20:03:22;6.00;84.40
4374;DHT22;2201;51.100;6.814;2023-04-03T20:05:51;5.90;84.80
4374;DHT22;2201;51.100;6.814;2023-04-03T20:08:18;5.80;85.30
4374;DHT22;2201;51.100;6.814;2023-04-03T20:10:45;5.80;85.60
4374;DHT22;2201;51.100;6.814;2023-04-03T20:13:12;5.80;86.20
4374;DHT22;2201;51.100;6.814;2023-04-03T20:15:39;5.70;85.80
4374;DHT22;2201;51.100;6.814;2023-04-03T20:18:08;5.70;86.20
4374;DHT22;2201;51.100;6.814;2023-04-03T20:20:35;5.60;86.60
4374;DHT22;2201;51.100;6.814;2023-04-03T20:23:07;5.60;86.70
4374;DHT22;2201;51.100;6.814;2023-04-03T20:25:39;5.60;86.60
4374;DHT22;2201;51.100;6.814;2023-04-03T20:28:06;5.50;86.60
4374;DHT22;2201;51.100;6.814;2023-04-03T20:30:33;5.50;86.60
4374;DHT22;2201;51.100;6.814;2023-04-03T20:33:01;5.40;86.20
4374;DHT22;2201;51.100;6.814;2023-04-03T20:35:28;5.40;86.70
4374;DHT22;2201;51.100;6.814;2023-04-03T20:37:55;5.40;86.70
4374;DHT22;2201;51.100;6.814;2023-04-03T20:40:23;5.40;86.60
4374;DHT22;2201;51.100;6.814;2023-04-03T20:42:50;5.40;86.50
4374;DHT22;2201;51.100;6.814;2023-04-03T20:45:17;5.40;86.80
4374;DHT22;2201;51.100;6.814;2023-04-03T20:47:45;5.30;86.40
4374;DHT22;2201;51.100;6.814;2023-04-03T20:50:12;5.30;86.50
4374;DHT22;2201;51.100;6.814;2023-04-03T20:52:39;5.30;86.80
4374;DHT22;2201;51.100;6.814;2023-04-03T20:55:07;5.30;86.80
4374;DHT22;2201;51.100;6.814;2023-04-03T20:57:35;5.20;87.00
4374;DHT22;2201;51.100;6.814;2023-04-03T21:00:03;5.20;87.00
4374;DHT22;2201;51.100;6.814;2023-04-03T21:02:31;5.20;87.20
4374;DHT22;2201;51.100;6.814;2023-04-03T21:04:59;5.20;87.50
4374;DHT22;2201;51.100;6.814;2023-04-03T21:19:12;5.00;88.10
4374;DHT22;2201;51.100;6.814;2023-04-03T21:21:40;4.90;88.10
4374;DHT22;2201;51.100;6.814;2023-04-03T21:24:08;4.90;88.30
4374;DHT22;2201;51.100;6.814;2023-04-03T21:26:37;4.90;88.20
4374;DHT22;2201;51.100;6.814;2023-04-03T21:29:05;4.90;88.40
4374;DHT22;2201;51.100;6.814;2023-04-03T21:31:52;4.80;88.40
4374;DHT22;2201;51.100;6.814;2023-04-03T21:34:23;4.80;88.30
4374;DHT22;2201;51.100;6.814;2023-04-03T21:36:52;4.80;88.40
4374;DHT22;2201;51.100;6.814;2023-04-03T21:39:19;4.80;88.90
4374;DHT22;2201;51.100;6.814;2023-04-03T21:41:47;4.70;88.70
4374;DHT22;2201;51.100;6.814;2023-04-03T21:44:14;4.70;88.90
4374;DHT22;2201;51.100;6.814;2023-04-03T21:46:41;4.70;88.80
4374;DHT22;2201;51.100;6.814;2023-04-03T21:49:07;4.60;88.80
4374;DHT22;2201;51.100;6.814;2023-04-03T21:51:36;4.60;89.00
4374;DHT22;2201;51.100;6.814;2023-04-03T21:54:03;4.60;89.30
4374;DHT22;2201;51.100;6.814;2023-04-03T21:56:30;4.60;89.40
4374;DHT22;2201;51.100;6.814;2023-04-03T21:58:59;4.50;89.20
4374;DHT22;2201;51.100;6.814;2023-04-03T22:01:26;4.50;89.50
4374;DHT22;2201;51.100;6.814;2023-04-03T22:03:56;4.50;89.70
4374;DHT22;2201;51.100;6.814;2023-04-03T22:06:23;4.50;89.90
4374;DHT22;2201;51.100;6.814;2023-04-03T22:08:52;4.40;90.90
4374;DHT22;2201;51.100;6.814;2023-04-03T22:11:21;4.40;90.80
4374;DHT22;2201;51.100;6.814;2023-04-03T22:13:51;4.40;90.90
4374;DHT22;2201;51.100;6.814;2023-04-03T22:16:18;4.30;91.50
4374;DHT22;2201;51.100;6.814;2023-04-03T22:18:47;4.30;91.40
4374;DHT22;2201;51.100;6.814;2023-04-03T22:21:14;4.30;91.70
4374;DHT22;2201;51.100;6.814;2023-04-03T22:23:41;4.20;92.00